createdAt,value
2022-07-28T00:01:14.150Z,3.47
2022-07-28T00:03:47.163Z,3.23
2022-07-28T00:06:15.086Z,3.37
2022-07-28T00:08:43.020Z,3.10
2022-07-28T00:11:11.158Z,3.30
2022-07-28T00:13:39.389Z,3.57
2022-07-28T00:16:08.290Z,3.33
2022-07-28T00:18:36.527Z,3.20
2022-07-28T00:21:05.821Z,2.90
2022-07-28T00:23:38.834Z,2.77
2022-07-28T00:26:08.709Z,2.93
2022-07-28T00:28:37.302Z,3.17
2022-07-28T00:31:10.608Z,2.83
2022-07-28T00:33:40.659Z,3.13
2022-07-28T00:36:11.571Z,2.87
2022-07-28T00:38:42.634Z,3.20
2022-07-28T00:41:12.757Z,2.80
2022-07-28T00:43:41.600Z,2.90
2022-07-28T00:46:10.171Z,3.00
2022-07-28T00:48:39.832Z,3.00
2022-07-28T00:51:10.287Z,3.07
2022-07-28T00:53:39.177Z,3.30
2022-07-28T00:56:07.979Z,3.53
2022-07-28T00:58:36.592Z,3.10
2022-07-28T01:01:05.098Z,3.37
2022-07-28T01:03:34.777Z,3.53
2022-07-28T01:06:10.915Z,2.90
2022-07-28T01:08:51.789Z,3.37
2022-07-28T01:11:27.399Z,3.47
2022-07-28T01:14:03.869Z,2.97
2022-07-28T01:16:31.990Z,3.00
2022-07-28T01:19:05.992Z,3.17
2022-07-28T01:21:36.585Z,2.93
2022-07-28T01:24:20.893Z,3.50
2022-07-28T01:26:59.392Z,3.30
2022-07-28T01:29:51.443Z,2.97
2022-07-28T01:32:25.729Z,3.23
2022-07-28T01:34:59.776Z,3.93
2022-07-28T01:37:31.418Z,3.00
2022-07-28T01:40:02.321Z,3.70
2022-07-28T01:42:38.336Z,2.87
2022-07-28T01:45:09.070Z,3.07
2022-07-28T01:47:39.236Z,3.10
2022-07-28T01:50:11.362Z,3.00
2022-07-28T01:52:41.743Z,3.17
2022-07-28T01:55:11.796Z,3.20
2022-07-28T01:57:40.208Z,2.97
2022-07-28T02:00:12.431Z,3.30
2022-07-28T02:02:44.462Z,2.93
2022-07-28T02:05:15.911Z,3.07
2022-07-28T02:07:48.972Z,2.70
2022-07-28T02:10:19.473Z,2.80
2022-07-28T02:12:50.897Z,2.97
2022-07-28T02:15:20.336Z,2.60
2022-07-28T02:17:50.821Z,3.23
2022-07-28T02:20:20.703Z,2.90
2022-07-28T02:22:51.456Z,3.30
2022-07-28T02:25:21.044Z,3.10
2022-07-28T02:27:51.589Z,2.83
2022-07-28T02:30:35.384Z,3.60
2022-07-28T02:33:12.380Z,3.10
2022-07-28T02:35:48.990Z,3.33
2022-07-28T02:38:23.799Z,2.83
2022-07-28T02:40:55.343Z,2.43
2022-07-28T02:43:45.845Z,2.53
2022-07-28T02:46:20.329Z,2.53
2022-07-28T02:48:54.443Z,2.60
2022-07-28T02:51:25.916Z,2.90
2022-07-28T02:53:55.918Z,2.97
2022-07-28T02:56:24.759Z,2.80
2022-07-28T02:58:53.712Z,2.90
2022-07-28T03:01:22.910Z,2.90
2022-07-28T03:03:53.996Z,2.80
2022-07-28T03:06:28.502Z,2.97
2022-07-28T03:08:57.127Z,2.63
2022-07-28T03:11:25.242Z,2.87
2022-07-28T03:13:53.314Z,2.87
2022-07-28T03:16:21.465Z,2.77
2022-07-28T03:18:52.423Z,2.90
2022-07-28T03:21:20.466Z,2.87
2022-07-28T03:23:49.574Z,2.63
2022-07-28T03:26:23.407Z,2.90
2022-07-28T03:28:54.074Z,2.43
2022-07-28T03:31:23.867Z,2.80
2022-07-28T03:33:53.489Z,2.40
2022-07-28T03:36:35.852Z,2.47
2022-07-28T03:39:08.613Z,2.60
2022-07-28T03:41:37.819Z,2.40
2022-07-28T03:44:06.542Z,2.50
2022-07-28T03:46:34.696Z,2.67
2022-07-28T03:49:09.151Z,2.67
2022-07-28T03:51:37.293Z,2.40
2022-07-28T03:54:05.425Z,2.57
2022-07-28T03:56:33.578Z,3.03
2022-07-28T03:59:01.634Z,2.60
2022-07-28T04:01:29.762Z,2.60
2022-07-28T04:03:57.833Z,2.70
2022-07-28T04:06:27.181Z,2.47
2022-07-28T04:08:55.137Z,2.30
2022-07-28T04:11:23.225Z,2.30
2022-07-28T04:13:51.305Z,2.67
2022-07-28T04:16:19.249Z,2.50
2022-07-28T04:18:50.402Z,2.53
2022-07-28T04:21:18.496Z,2.40
2022-07-28T04:23:47.811Z,2.50
2022-07-28T04:26:17.286Z,2.70
2022-07-28T04:28:45.665Z,2.70
2022-07-28T04:31:13.828Z,2.93
2022-07-28T04:33:42.793Z,3.47
2022-07-28T04:36:11.632Z,2.80
2022-07-28T04:38:39.642Z,2.90
2022-07-28T04:41:08.992Z,3.03
2022-07-28T04:43:37.546Z,3.10
2022-07-28T04:46:05.758Z,2.67
2022-07-28T04:48:33.803Z,3.00
2022-07-28T04:51:01.916Z,2.50
2022-07-28T04:53:30.640Z,2.40
2022-07-28T04:55:58.768Z,2.40
2022-07-28T04:58:28.311Z,2.53
2022-07-28T05:00:59.089Z,2.93
2022-07-28T05:03:27.246Z,2.43
2022-07-28T05:05:56.176Z,2.20
2022-07-28T05:08:26.017Z,2.37
2022-07-28T05:10:55.526Z,2.47
2022-07-28T05:13:23.685Z,2.63
2022-07-28T05:15:53.084Z,2.63
2022-07-28T05:18:21.160Z,2.60
2022-07-28T05:20:49.088Z,2.40
2022-07-28T05:23:17.660Z,2.30
2022-07-28T05:25:45.951Z,2.63
2022-07-28T05:28:13.985Z,2.17
2022-07-28T05:30:41.952Z,2.17
2022-07-28T05:33:11.348Z,2.10
2022-07-28T05:35:39.412Z,2.77
2022-07-28T05:38:11.019Z,2.37
2022-07-28T05:40:39.281Z,2.40
2022-07-28T05:43:07.388Z,1.90
2022-07-28T05:45:35.420Z,2.10
2022-07-28T05:48:03.456Z,2.30
2022-07-28T05:50:32.960Z,2.30
2022-07-28T05:53:01.244Z,2.40
2022-07-28T05:55:29.437Z,1.70
2022-07-28T05:57:58.823Z,2.10
2022-07-28T06:00:27.218Z,1.90
2022-07-28T06:02:55.337Z,1.90
2022-07-28T06:05:24.356Z,2.20
2022-07-28T06:07:53.712Z,1.80
2022-07-28T06:10:23.566Z,1.80
2022-07-28T06:12:52.981Z,1.63
2022-07-28T06:15:23.002Z,2.03
2022-07-28T06:17:52.575Z,1.97
2022-07-28T06:20:21.236Z,2.57
2022-07-28T06:22:51.284Z,2.23
2022-07-28T06:25:22.297Z,2.00
2022-07-28T06:27:51.335Z,2.33
2022-07-28T06:30:20.007Z,2.23
2022-07-28T06:32:48.623Z,2.00
2022-07-28T06:35:17.691Z,1.90
2022-07-28T06:37:45.991Z,1.90
2022-07-28T06:40:15.234Z,2.07
2022-07-28T06:42:45.536Z,2.07
2022-07-28T06:45:20.596Z,1.70
2022-07-28T06:47:49.716Z,1.97
2022-07-28T06:50:25.244Z,1.80
2022-07-28T06:52:55.016Z,2.00
2022-07-28T06:55:23.341Z,2.07
2022-07-28T06:57:53.158Z,1.70
2022-07-28T07:00:21.288Z,2.00
2022-07-28T07:02:49.351Z,2.10
2022-07-28T07:05:17.458Z,1.80
2022-07-28T07:07:45.482Z,1.90
2022-07-28T07:10:13.529Z,1.90
2022-07-28T07:12:41.606Z,2.10
2022-07-28T07:15:12.610Z,1.50
2022-07-28T07:17:42.049Z,1.63
2022-07-28T07:20:13.407Z,1.73
2022-07-28T07:22:45.022Z,1.70
2022-07-28T07:25:13.954Z,1.80
2022-07-28T07:27:42.091Z,1.60
2022-07-28T07:30:12.982Z,1.50
2022-07-28T07:32:41.314Z,1.57
2022-07-28T07:35:09.771Z,1.77
2022-07-28T07:37:37.768Z,1.93
2022-07-28T07:40:07.702Z,1.70
2022-07-28T07:42:35.797Z,1.40
2022-07-28T07:45:04.013Z,1.80
2022-07-28T07:47:33.309Z,1.67
2022-07-28T07:50:04.107Z,1.67
2022-07-28T07:52:32.485Z,1.60
2022-07-28T07:55:00.542Z,1.70
2022-07-28T07:57:29.761Z,1.90
2022-07-28T07:59:57.845Z,2.07
2022-07-28T08:02:25.862Z,1.40
2022-07-28T08:04:56.830Z,1.50
2022-07-28T08:07:24.922Z,1.90
2022-07-28T08:09:52.917Z,1.90
2022-07-28T08:12:25.152Z,1.77
2022-07-28T08:14:53.894Z,1.77
2022-07-28T08:17:25.548Z,1.47
2022-07-28T08:19:56.130Z,1.80
2022-07-28T08:22:24.674Z,1.60
2022-07-28T08:24:52.801Z,1.77
2022-07-28T08:27:20.844Z,1.97
2022-07-28T08:29:48.854Z,1.30
2022-07-28T08:32:16.877Z,1.53
2022-07-28T08:34:44.905Z,1.60
2022-07-28T08:37:14.308Z,1.50
2022-07-28T08:39:42.331Z,1.60
2022-07-28T08:42:16.208Z,1.50
2022-07-28T08:44:52.413Z,1.60
2022-07-28T08:47:21.162Z,1.40
2022-07-28T08:49:50.431Z,1.60
2022-07-28T08:52:22.509Z,1.73
2022-07-28T08:54:51.867Z,1.70
2022-07-28T08:57:23.580Z,1.50
2022-07-28T08:59:52.981Z,1.60
2022-07-28T09:02:21.791Z,1.80
2022-07-28T09:04:50.928Z,1.60
2022-07-28T09:07:20.719Z,1.40
2022-07-28T09:09:50.480Z,1.20
2022-07-28T09:12:18.935Z,1.10
2022-07-28T09:14:55.258Z,1.60
2022-07-28T09:17:23.293Z,1.38
2022-07-28T09:19:51.396Z,1.67
2022-07-28T09:22:20.727Z,1.30
2022-07-28T09:24:48.698Z,1.47
2022-07-28T09:27:17.053Z,1.70
2022-07-28T09:29:48.199Z,2.00
2022-07-28T09:32:18.013Z,1.40
2022-07-28T09:34:48.723Z,1.50
2022-07-28T09:37:26.981Z,1.88
2022-07-28T09:39:59.053Z,1.33
2022-07-28T09:42:27.901Z,1.35
2022-07-28T09:45:22.258Z,1.40
2022-07-28T09:48:08.730Z,1.37
2022-07-28T09:50:37.087Z,1.50
2022-07-28T09:53:21.960Z,1.30
2022-07-28T09:55:58.007Z,1.83
2022-07-28T09:58:26.897Z,1.40
2022-07-28T10:01:08.067Z,1.93
2022-07-28T10:03:37.057Z,1.43
2022-07-28T10:06:08.356Z,1.60
2022-07-28T10:08:46.102Z,1.38
2022-07-28T10:11:15.658Z,1.45
2022-07-28T10:13:54.982Z,1.50
2022-07-28T10:16:25.185Z,1.27
2022-07-28T10:18:53.515Z,1.52
2022-07-28T10:21:25.103Z,1.50
2022-07-28T10:23:56.746Z,1.30
2022-07-28T10:26:29.935Z,1.33
2022-07-28T10:28:58.343Z,1.70
2022-07-28T10:31:36.417Z,1.65
2022-07-28T10:34:06.300Z,1.52
2022-07-28T10:36:36.211Z,1.85
2022-07-28T10:39:12.758Z,1.70
2022-07-28T10:41:42.395Z,1.40
2022-07-28T10:44:14.393Z,1.50
2022-07-28T10:46:44.568Z,1.48
2022-07-28T10:49:14.259Z,1.67
2022-07-28T10:52:02.272Z,1.38
2022-07-28T10:54:35.601Z,1.40
2022-07-28T10:57:07.029Z,1.52
2022-07-28T10:59:51.184Z,1.52
2022-07-28T11:02:51.531Z,1.65
2022-07-28T11:05:34.355Z,1.33
2022-07-28T11:08:05.862Z,1.63
2022-07-28T11:10:47.161Z,1.58
2022-07-28T11:13:28.757Z,1.70
2022-07-28T11:15:58.282Z,1.20
2022-07-28T11:18:29.266Z,1.33
2022-07-28T11:21:10.194Z,1.38
2022-07-28T11:23:48.085Z,1.30
2022-07-28T11:26:38.240Z,1.40
2022-07-28T11:29:46.066Z,1.20
2022-07-28T11:32:14.092Z,1.50
2022-07-28T11:35:05.970Z,1.35
2022-07-28T11:37:54.044Z,1.65
2022-07-28T11:40:31.626Z,1.42
2022-07-28T11:43:36.714Z,1.30
2022-07-28T11:46:39.852Z,1.60
2022-07-28T11:49:27.984Z,1.30
2022-07-28T11:52:16.673Z,1.50
2022-07-28T11:54:50.892Z,1.42
2022-07-28T11:57:21.287Z,0.95
2022-07-28T11:59:53.894Z,1.55
2022-07-28T12:02:24.680Z,1.63
2022-07-28T12:05:01.226Z,1.65
2022-07-28T12:07:33.576Z,1.40
2022-07-28T12:10:01.766Z,1.35
2022-07-28T12:12:30.361Z,1.70
2022-07-28T12:15:04.821Z,1.60
2022-07-28T12:17:35.187Z,1.35
2022-07-28T12:20:05.593Z,0.98
2022-07-28T12:22:39.596Z,1.33
2022-07-28T12:25:13.251Z,1.65
2022-07-28T12:27:41.655Z,1.33
2022-07-28T12:30:22.796Z,1.48
2022-07-28T12:32:50.820Z,1.35
2022-07-28T12:35:19.843Z,1.98
2022-07-28T12:37:50.085Z,1.90
2022-07-28T12:40:19.650Z,1.13
2022-07-28T12:42:55.626Z,1.33
2022-07-28T12:45:26.411Z,1.20
2022-07-28T12:47:55.405Z,1.30
2022-07-28T12:50:23.488Z,1.25
2022-07-28T12:53:08.030Z,1.50
2022-07-28T12:55:37.160Z,1.02
2022-07-28T12:58:06.567Z,1.30
2022-07-28T13:00:37.246Z,1.30
2022-07-28T13:03:21.548Z,1.35
2022-07-28T13:06:04.610Z,1.30
2022-07-28T13:08:44.430Z,1.02
2022-07-28T13:11:42.891Z,1.00
2022-07-28T13:14:03.118Z,0.77
2022-07-28T13:16:34.328Z,1.40
2022-07-28T13:19:05.530Z,1.10
2022-07-28T13:21:41.294Z,1.23
2022-07-28T13:24:27.361Z,1.17
2022-07-28T13:26:55.315Z,1.30
2022-07-28T13:29:23.788Z,1.23
2022-07-28T13:31:54.607Z,1.45
2022-07-28T13:34:23.219Z,1.25
2022-07-28T13:36:52.399Z,1.00
2022-07-28T13:39:20.478Z,1.27
2022-07-28T13:41:58.603Z,1.02
2022-07-28T13:44:27.797Z,1.13
2022-07-28T13:46:58.887Z,1.00
2022-07-28T13:49:28.386Z,1.35
2022-07-28T13:51:57.324Z,1.48
2022-07-28T13:54:25.588Z,1.23
2022-07-28T13:56:54.163Z,1.40
2022-07-28T13:59:22.258Z,1.20
2022-07-28T14:01:55.298Z,1.20
2022-07-28T14:04:25.408Z,1.38
2022-07-28T14:06:54.898Z,1.17
2022-07-28T14:09:23.083Z,1.30
2022-07-28T14:11:53.794Z,1.35
2022-07-28T14:14:24.625Z,1.20
2022-07-28T14:16:54.383Z,1.33
2022-07-28T14:19:38.693Z,1.00
2022-07-28T14:22:12.701Z,1.10
2022-07-28T14:24:41.997Z,0.95
2022-07-28T14:27:10.628Z,1.23
2022-07-28T14:29:39.242Z,1.30
2022-07-28T14:32:07.729Z,1.33
2022-07-28T14:34:39.814Z,0.98
2022-07-28T14:37:08.947Z,1.10
2022-07-28T14:39:38.207Z,0.88
2022-07-28T14:42:06.898Z,0.88
2022-07-28T14:44:35.261Z,1.25
2022-07-28T14:47:03.527Z,1.30
2022-07-28T14:49:31.681Z,0.80
2022-07-28T14:52:01.033Z,1.10
2022-07-28T14:54:29.142Z,1.25
2022-07-28T14:56:57.726Z,1.20
2022-07-28T14:59:25.771Z,1.10
2022-07-28T15:01:53.841Z,0.93
2022-07-28T15:04:22.205Z,1.10
2022-07-28T15:06:50.213Z,1.00
2022-07-28T15:09:19.589Z,1.30
2022-07-28T15:11:47.935Z,1.02
2022-07-28T15:14:18.968Z,1.10
2022-07-28T15:16:49.274Z,1.13
2022-07-28T15:19:17.264Z,1.20
2022-07-28T15:21:47.357Z,1.23
2022-07-28T15:24:16.405Z,0.95
2022-07-28T15:26:46.207Z,1.00
2022-07-28T15:29:14.401Z,1.27
2022-07-28T15:31:43.442Z,1.10
2022-07-28T15:34:13.894Z,1.08
2022-07-28T15:36:42.354Z,0.95
2022-07-28T15:39:14.093Z,1.10
2022-07-28T15:41:43.093Z,0.98
2022-07-28T15:44:14.218Z,0.93
2022-07-28T15:46:42.640Z,1.13
2022-07-28T15:49:12.513Z,1.17
2022-07-28T15:51:41.369Z,1.50
2022-07-28T15:54:10.104Z,1.20
2022-07-28T15:56:38.311Z,1.30
2022-07-28T15:59:08.055Z,0.98
2022-07-28T16:01:44.977Z,1.13
2022-07-28T16:04:13.960Z,1.30
2022-07-28T16:06:59.677Z,1.10
2022-07-28T16:09:45.735Z,1.10
2022-07-28T16:12:14.749Z,1.17
2022-07-28T16:14:42.913Z,1.25
2022-07-28T16:17:12.993Z,1.25
2022-07-28T16:19:49.833Z,1.05
2022-07-28T16:22:18.694Z,1.10
2022-07-28T16:24:47.361Z,1.30
2022-07-28T16:27:15.758Z,1.27
2022-07-28T16:29:43.744Z,1.00
2022-07-28T16:32:13.101Z,1.02
2022-07-28T16:34:41.112Z,1.00
2022-07-28T16:37:09.388Z,1.08
2022-07-28T16:39:38.319Z,1.20
2022-07-28T16:42:06.811Z,1.02
2022-07-28T16:44:37.712Z,1.00
2022-07-28T16:47:05.888Z,1.20
2022-07-28T16:49:36.496Z,1.15
2022-07-28T16:52:04.529Z,1.00
2022-07-28T16:54:32.598Z,0.95
2022-07-28T16:57:00.785Z,1.15
2022-07-28T16:59:38.020Z,1.00
2022-07-28T17:02:15.937Z,0.88
2022-07-28T17:04:45.492Z,1.20
2022-07-28T17:07:13.569Z,1.08
2022-07-28T17:09:41.612Z,1.05
2022-07-28T17:12:10.221Z,1.10
2022-07-28T17:14:38.220Z,1.20
2022-07-28T17:17:06.396Z,0.93
2022-07-28T17:19:34.441Z,0.90
2022-07-28T17:22:06.981Z,1.30
2022-07-28T17:24:35.335Z,0.95
2022-07-28T17:29:51.367Z,1.27
2022-07-28T17:32:19.791Z,1.23
2022-07-28T17:34:47.831Z,1.30
2022-07-28T17:37:17.204Z,1.50
2022-07-28T17:39:45.331Z,1.33
2022-07-28T17:42:13.300Z,1.13
2022-07-28T17:44:41.328Z,1.27
2022-07-28T17:47:09.588Z,0.93
2022-07-28T17:49:42.071Z,1.10
2022-07-28T17:52:13.000Z,1.10
2022-07-28T17:54:59.724Z,1.00
2022-07-28T17:57:30.469Z,1.40
2022-07-28T18:00:05.965Z,1.20
2022-07-28T18:02:34.087Z,1.30
2022-07-28T18:05:02.142Z,1.02
2022-07-28T18:07:30.543Z,1.35
2022-07-28T18:10:19.163Z,1.05
2022-07-28T18:12:52.996Z,1.13
2022-07-28T18:15:21.273Z,1.33
2022-07-28T18:17:55.542Z,1.38
2022-07-28T18:20:24.688Z,1.17
2022-07-28T18:22:52.876Z,1.10
2022-07-28T18:25:22.311Z,1.40
2022-07-28T18:27:50.567Z,1.20
2022-07-28T18:30:19.411Z,1.55
2022-07-28T18:32:47.479Z,1.60
2022-07-28T18:35:16.110Z,1.35
2022-07-28T18:37:45.986Z,2.00
2022-07-28T18:40:16.154Z,1.98
2022-07-28T18:42:46.818Z,2.03
2022-07-28T18:45:15.278Z,1.70
2022-07-28T18:47:46.607Z,1.63
2022-07-28T18:50:27.627Z,1.90
2022-07-28T18:52:58.721Z,1.90
2022-07-28T18:55:26.981Z,2.03
2022-07-28T18:57:56.400Z,2.00
2022-07-28T19:00:24.430Z,1.83
2022-07-28T19:02:52.867Z,2.38
2022-07-28T19:05:20.982Z,2.20
2022-07-28T19:07:50.043Z,1.98
2022-07-28T19:10:18.089Z,2.35
2022-07-28T19:12:48.130Z,2.00
2022-07-28T19:15:17.631Z,2.30
2022-07-28T19:17:45.757Z,2.10
2022-07-28T19:20:13.880Z,2.10
2022-07-28T19:22:42.129Z,3.20
2022-07-28T19:25:11.388Z,4.20
2022-07-28T19:27:40.181Z,3.50
2022-07-28T19:30:10.000Z,4.35
2022-07-28T19:32:41.706Z,3.85
2022-07-28T19:35:10.628Z,4.20
2022-07-28T19:37:38.932Z,2.83
2022-07-28T19:40:08.379Z,2.70
2022-07-28T19:42:36.352Z,2.33
2022-07-28T19:45:04.476Z,2.08
2022-07-28T19:47:32.414Z,2.03
2022-07-28T19:50:07.196Z,1.83
2022-07-28T19:52:37.406Z,1.98
2022-07-28T19:55:06.616Z,1.50
2022-07-28T19:57:35.420Z,1.65
2022-07-28T20:00:03.477Z,1.70
2022-07-28T20:02:31.641Z,1.92
2022-07-28T20:04:59.700Z,1.60
2022-07-28T20:07:29.103Z,1.85
2022-07-28T20:09:57.106Z,1.50
2022-07-28T20:12:25.444Z,1.55
2022-07-28T20:14:54.682Z,1.90
2022-07-28T20:17:37.478Z,1.42
2022-07-28T20:20:07.458Z,1.60
2022-07-28T20:22:37.440Z,1.98
2022-07-28T20:25:09.516Z,1.90
2022-07-28T20:27:40.174Z,1.60
2022-07-28T20:30:10.174Z,1.63
2022-07-28T20:32:38.207Z,1.75
2022-07-28T20:35:07.431Z,1.80
2022-07-28T20:37:37.803Z,1.70
2022-07-28T20:40:07.548Z,1.90
2022-07-28T20:42:35.615Z,1.83
2022-07-28T20:45:04.077Z,1.88
2022-07-28T20:47:33.270Z,1.88
2022-07-28T20:50:01.793Z,1.65
2022-07-28T20:52:30.247Z,1.73
2022-07-28T20:54:59.585Z,1.70
2022-07-28T20:57:27.622Z,1.90
2022-07-28T20:59:55.593Z,1.90
2022-07-28T21:02:24.482Z,1.70
2022-07-28T21:04:52.782Z,1.60
2022-07-28T21:07:59.588Z,1.92
2022-07-28T21:10:11.793Z,1.60
2022-07-28T21:12:40.169Z,1.65
2022-07-28T21:15:09.905Z,1.60
2022-07-28T21:17:37.970Z,1.80
2022-07-28T21:20:06.611Z,1.90
2022-07-28T21:22:34.580Z,1.70
2022-07-28T21:25:02.585Z,1.60
2022-07-28T21:27:52.719Z,1.60
2022-07-28T21:30:19.788Z,1.92
2022-07-28T21:32:56.051Z,1.52
2022-07-28T21:35:24.124Z,1.90
2022-07-28T21:37:52.197Z,1.67
2022-07-28T21:40:20.408Z,2.17
2022-07-28T21:42:49.796Z,1.63
2022-07-28T21:45:18.065Z,2.00
2022-07-28T21:47:46.193Z,1.97
2022-07-28T21:50:15.092Z,1.70
2022-07-28T21:52:43.252Z,1.80
2022-07-28T21:55:11.410Z,2.10
2022-07-28T21:57:39.636Z,1.70
2022-07-28T22:00:11.982Z,1.80
2022-07-28T22:02:41.174Z,1.80
2022-07-28T22:05:10.091Z,1.80
2022-07-28T22:07:38.176Z,1.80
2022-07-28T22:10:06.967Z,2.40
2022-07-28T22:12:35.137Z,1.40
2022-07-28T22:15:03.222Z,1.90
2022-07-28T22:17:32.674Z,1.80
2022-07-28T22:20:00.820Z,2.40
2022-07-28T22:22:28.849Z,1.83
2022-07-28T22:24:56.919Z,1.70
2022-07-28T22:27:24.916Z,1.80
2022-07-28T22:29:53.193Z,2.00
2022-07-28T22:32:26.807Z,1.70
2022-07-28T22:34:59.129Z,1.60
2022-07-28T22:37:27.495Z,1.70
2022-07-28T22:39:55.674Z,1.40
2022-07-28T22:42:23.781Z,1.80
2022-07-28T22:44:51.934Z,1.17
2022-07-28T22:47:20.036Z,1.70
2022-07-28T22:49:48.013Z,1.77
2022-07-28T22:52:17.481Z,1.60
2022-07-28T22:54:45.516Z,1.70
2022-07-28T22:57:32.710Z,1.67
2022-07-28T23:00:00.759Z,1.80
2022-07-28T23:02:29.972Z,1.60
2022-07-28T23:04:58.639Z,1.77
2022-07-28T23:07:52.946Z,1.87
2022-07-28T23:10:16.358Z,1.80
2022-07-28T23:12:44.469Z,1.70
2022-07-28T23:15:12.639Z,2.00
2022-07-28T23:17:40.744Z,1.57
2022-07-28T23:20:09.488Z,1.50
2022-07-28T23:22:39.001Z,1.80
2022-07-28T23:25:07.666Z,1.90
2022-07-28T23:27:35.697Z,1.50
2022-07-28T23:30:03.744Z,1.43
2022-07-28T23:32:31.831Z,1.40
2022-07-28T23:34:59.840Z,1.80
2022-07-28T23:37:28.805Z,1.70
2022-07-28T23:39:58.284Z,1.70
2022-07-28T23:42:26.308Z,1.87
2022-07-28T23:44:54.348Z,1.63
2022-07-28T23:47:22.495Z,1.40
2022-07-28T23:49:50.650Z,1.60
2022-07-28T23:52:18.720Z,1.80
2022-07-28T23:54:46.820Z,2.03
2022-07-28T23:57:16.244Z,1.57
2022-07-28T23:59:44.316Z,1.43
